Time;durP1;ratioP1;P1;durP2;ratioP2;P2;SDS_P1;SDS_P2;PMS_P1;PMS_P2;Temp;Humidity;BMP_temperature;BMP_pressure;BME280_temperature;BME280_humidity;BME280_pressure;Samples;Min_cycle;Max_cycle;Signal;HPM_P1;HPM_P2
2023/03/24 00:00:13;;;;;;;1999.90;999.90;;;30.00;99.90;;;;;;5030416;28;20049;-72
2023/03/24 00:02:44;;;;;;;1999.90;999.90;;;29.80;99.60;;;;;;5026732;28;20441;-71
2023/03/24 00:05:22;;;;;;;1999.90;999.90;;;29.40;99.90;;;;;;5025676;28;20101;-73
2023/03/24 00:07:50;;;;;;;1999.90;999.90;;;29.10;99.90;;;;;;5022848;28;20041;-72
2023/03/24 00:10:19;;;;;;;1999.90;999.90;;;28.70;99.90;;;;;;5030287;28;20029;-72
2023/03/24 00:12:47;;;;;;;1999.90;999.90;;;28.40;99.90;;;;;;5024557;28;20365;-74
2023/03/24 00:15:20;;;;;;;1999.90;999.90;;;28.40;99.90;;;;;;5025159;28;20545;-74
2023/03/24 00:17:51;;;;;;;1999.90;999.90;;;28.60;99.90;;;;;;5021051;28;20137;-73
2023/03/24 00:20:21;;;;;;;1999.90;999.90;;;28.90;99.90;;;;;;5026048;28;20036;-72
2023/03/24 00:22:55;;;;;;;1999.90;999.90;;;29.20;99.90;;;;;;5025107;28;20031;-72
2023/03/24 00:25:32;;;;;;;1999.90;999.90;;;29.70;99.90;;;;;;5022342;28;20075;-72
2023/03/24 00:28:00;;;;;;;1999.90;999.90;;;30.50;99.80;;;;;;5026263;28;20052;-72
2023/03/24 00:30:27;;;;;;;1999.90;999.90;;;30.50;98.70;;;;;;5029678;28;20480;-73
2023/03/24 00:32:57;;;;;;;1999.90;999.90;;;30.70;99.70;;;;;;5020417;28;20035;-74
2023/03/24 00:35:25;;;;;;;1999.90;999.90;;;31.40;99.40;;;;;;5027093;28;20025;-73
2023/03/24 00:37:52;;;;;;;1999.90;999.90;;;32.20;98.20;;;;;;5026379;28;20041;-72
2023/03/24 00:40:21;;;;;;;1999.90;999.90;;;32.30;98.20;;;;;;5029771;28;20033;-71
2023/03/24 00:42:49;;;;;;;1999.90;999.90;;;32.30;97.70;;;;;;5022861;28;20025;-72
2023/03/24 00:45:21;;;;;;;1999.90;999.90;;;31.70;97.50;;;;;;5025764;28;20057;-72
2023/03/24 00:47:52;;;;;;;1999.90;999.90;;;31.00;97.60;;;;;;5019859;28;20839;-71
2023/03/24 00:50:25;;;;;;;1999.90;999.90;;;30.20;98.60;;;;;;5020056;28;20100;-71
2023/03/24 00:52:54;;;;;;;1999.90;999.90;;;29.90;99.10;;;;;;5012590;28;20389;-73
2023/03/24 00:55:21;;;;;;;1999.90;999.90;;;30.50;98.50;;;;;;5018680;28;20391;-71
2023/03/24 00:57:49;;;;;;;1999.90;999.90;;;30.50;98.10;;;;;;5016366;28;20026;-70
2023/03/24 01:00:23;;;;;;;1999.90;999.90;;;30.00;98.00;;;;;;5019084;28;20038;-70
2023/03/24 01:02:52;;;;;;;1999.90;999.90;;;29.60;99.30;;;;;;5023461;28;20022;-72
2023/03/24 01:05:26;;;;;;;1999.90;999.90;;;29.30;99.90;;;;;;5029166;28;20029;-71
2023/03/24 01:07:57;;;;;;;1999.90;999.90;;;29.20;99.90;;;;;;5017103;28;20132;-71
2023/03/24 01:10:28;;;;;;;1999.90;999.90;;;29.20;99.90;;;;;;5023984;28;20526;-68
2023/03/24 01:12:58;;;;;;;1999.90;999.90;;;29.30;98.80;;;;;;5019683;28;20033;-69
2023/03/24 01:15:32;;;;;;;1999.90;999.90;;;29.40;99.50;;;;;;5028824;28;20510;-70
2023/03/24 01:18:03;;;;;;;1999.90;999.90;;;30.00;98.70;;;;;;5027023;28;20095;-73
2023/03/24 01:20:34;;;;;;;1999.90;999.90;;;30.10;98.20;;;;;;5025103;28;20193;-71
2023/03/24 01:23:06;;;;;;;1999.90;999.90;;;30.40;99.10;;;;;;5022925;28;20032;-71
2023/03/24 01:25:36;;;;;;;1999.90;999.90;;;31.00;99.00;;;;;;5017965;28;20596;-72
2023/03/24 01:28:04;;;;;;;1999.90;999.90;;;31.50;98.50;;;;;;5025125;28;20081;-71
2023/03/24 01:30:31;;;;;;;1999.90;999.90;;;32.00;98.10;;;;;;5023056;28;20041;-71
2023/03/24 01:32:59;;;;;;;1999.90;999.90;;;32.60;97.00;;;;;;5017961;28;20055;-71
2023/03/24 01:35:27;;;;;;;1999.90;999.90;;;33.00;96.50;;;;;;5016602;28;20033;-71
2023/03/24 01:37:54;;;;;;;1999.90;999.90;;;33.40;95.60;;;;;;5024908;28;20057;-72
2023/03/24 01:40:25;;;;;;;1999.90;999.90;;;33.40;94.00;;;;;;5026209;28;20044;-70
2023/03/24 01:42:53;;;;;;;1999.90;999.90;;;32.60;94.70;;;;;;5023009;28;20029;-71
2023/03/24 01:45:38;;;;;;;1999.90;999.90;;;31.40;96.00;;;;;;5020231;28;20054;-71
2023/03/24 01:48:07;;;;;;;;;;;30.30;98.00;;;;;;5022424;28;20036;-71
2023/03/24 01:50:34;;;;;;;1999.90;999.90;;;29.50;98.90;;;;;;5020124;28;19909;-72
2023/03/24 01:53:02;;;;;;;1999.90;999.90;;;28.80;99.80;;;;;;5017967;28;20028;-71
2023/03/24 01:55:32;;;;;;;1999.90;999.90;;;28.40;99.90;;;;;;5021236;28;20025;-71
2023/03/24 01:58:01;;;;;;;1999.90;999.90;;;28.00;99.90;;;;;;5016937;28;20020;-71
2023/03/24 02:00:30;;;;;;;1999.90;999.90;;;27.70;99.90;;;;;;5018015;28;20056;-71
2023/03/24 02:03:05;;;;;;;1999.90;999.90;;;27.40;99.90;;;;;;5017406;28;20045;-70
2023/03/24 02:05:35;;;;;;;1999.90;999.90;;;27.30;99.90;;;;;;5022793;28;20379;-70
2023/03/24 02:08:29;;;;;;;1999.90;999.90;;;27.20;99.90;;;;;;5013996;28;21791;-71
2023/03/24 02:10:59;;;;;;;1999.90;999.90;;;27.00;99.90;;;;;;5018406;28;20060;-72
2023/03/24 02:13:26;;;;;;;1999.90;999.90;;;27.00;99.90;;;;;;5020572;28;20034;-72
2023/03/24 02:16:12;;;;;;;1999.90;999.90;;;27.00;99.90;;;;;;5024231;28;20029;-71
2023/03/24 02:18:44;;;;;;;;;;;27.10;99.90;;;;;;5020512;28;20034;-73
2023/03/24 02:21:36;;;;;;;1999.90;999.90;;;27.40;99.90;;;;;;5018306;28;19918;-72
2023/03/24 02:24:34;;;;;;;1999.90;999.90;;;27.80;99.90;;;;;;5022508;28;20021;-72
2023/03/24 02:27:12;;;;;;;1999.90;999.90;;;28.40;99.90;;;;;;5027310;28;20028;-72
2023/03/24 02:29:58;;;;;;;1999.90;999.90;;;28.60;99.90;;;;;;5023552;28;21645;-73
2023/03/24 02:32:31;;;;;;;1999.90;999.90;;;28.50;99.90;;;;;;5027620;28;20025;-71
2023/03/24 02:35:29;;;;;;;1999.90;999.90;;;28.30;99.90;;;;;;5030234;28;20056;-70
2023/03/24 02:38:12;;;;;;;1999.90;999.90;;;28.00;99.90;;;;;;5020932;28;20025;-70
2023/03/24 02:41:26;;;;;;;1999.90;999.90;;;27.90;99.90;;;;;;5025999;28;20042;-70
2023/03/24 02:44:20;;;;;;;1999.90;999.90;;;27.80;99.90;;;;;;5025803;28;20032;-70
2023/03/24 02:47:40;;;;;;;1999.90;999.90;;;27.60;99.90;;;;;;5030259;28;20144;-71
2023/03/24 02:50:31;;;;;;;1999.90;999.90;;;27.40;99.90;;;;;;5030963;28;20511;-70
2023/03/24 02:53:20;;;;;;;1999.90;999.90;;;27.30;99.90;;;;;;5027782;28;20032;-70
2023/03/24 02:56:28;;;;;;;1999.90;999.90;;;27.10;99.90;;;;;;5029805;28;20124;-71
2023/03/24 02:59:05;;;;;;;1999.90;999.90;;;27.00;99.90;;;;;;5021606;28;20066;-71
2023/03/24 03:01:58;;;;;;;1999.90;999.90;;;26.80;99.90;;;;;;5031055;28;20057;-72
2023/03/24 03:04:37;;;;;;;1999.90;999.90;;;26.60;99.90;;;;;;5026086;28;20523;-71
2023/03/24 03:07:11;;;;;;;1999.90;999.90;;;26.50;99.90;;;;;;5028032;28;20463;-70
2023/03/24 03:09:48;;;;;;;1999.90;999.90;;;26.40;99.90;;;;;;5029531;28;20507;-71
2023/03/24 03:12:19;;;;;;;1999.90;999.90;;;26.40;99.90;;;;;;5025354;28;20556;-72
2023/03/24 03:15:12;;;;;;;1999.90;999.90;;;26.40;99.90;;;;;;5022421;28;20034;-72
2023/03/24 03:17:57;;;;;;;1999.90;999.90;;;26.40;99.90;;;;;;5023754;28;20045;-72
2023/03/24 03:20:29;;;;;;;1999.90;999.90;;;26.50;99.90;;;;;;5026751;28;20090;-71
2023/03/24 03:23:13;;;;;;;1999.90;999.90;;;26.50;99.90;;;;;;5025800;28;20044;-71
2023/03/24 03:25:49;;;;;;;1999.90;999.90;;;26.40;99.90;;;;;;5025700;28;20065;-71
2023/03/24 03:28:19;;;;;;;;;;;26.40;99.90;;;;;;5024978;28;20041;-72
2023/03/24 03:30:56;;;;;;;1999.90;999.90;;;26.40;99.90;;;;;;5028498;28;20319;-71
2023/03/24 03:33:56;;;;;;;1999.90;999.90;;;26.40;99.90;;;;;;5021946;28;21624;-71
2023/03/24 03:36:26;;;;;;;1999.90;999.90;;;26.50;99.90;;;;;;5021463;28;20029;-71
2023/03/24 03:39:08;;;;;;;1999.90;999.90;;;26.50;99.90;;;;;;5019761;28;20029;-72
2023/03/24 03:41:36;;;;;;;1999.90;999.90;;;26.50;99.90;;;;;;5022042;28;20021;-71
2023/03/24 03:44:04;;;;;;;1999.90;999.90;;;26.40;99.90;;;;;;5028210;28;20416;-71
2023/03/24 03:46:34;;;;;;;1999.90;999.90;;;26.40;99.90;;;;;;5021581;28;20045;-71
2023/03/24 03:49:02;;;;;;;1999.90;999.90;;;26.60;99.90;;;;;;5025418;28;20041;-71
2023/03/24 03:51:29;;;;;;;1999.90;999.90;;;27.10;99.90;;;;;;5026378;28;20018;-70
2023/03/24 03:54:11;;;;;;;1999.90;999.90;;;27.30;99.90;;;;;;5022968;28;20029;-71
2023/03/24 03:56:41;;;;;;;1999.90;999.90;;;27.30;99.90;;;;;;5014395;28;20124;-72
2023/03/24 03:59:22;;;;;;;1999.90;999.90;;;27.10;99.90;;;;;;5024126;28;20025;-73
2023/03/24 04:01:50;;;;;;;1999.90;999.90;;;26.90;99.90;;;;;;5019567;28;20033;-71
2023/03/24 04:04:55;;;;;;;1999.90;999.90;;;26.70;99.90;;;;;;5025240;28;20025;-71
2023/03/24 04:08:04;;;;;;;1999.90;999.90;;;26.60;99.90;;;;;;5017550;28;20029;-70
2023/03/24 04:10:59;;;;;;;1999.90;999.90;;;26.40;99.90;;;;;;5016369;28;20029;-71
2023/03/24 04:13:41;;;;;;;1999.90;999.90;;;26.50;99.90;;;;;;5024414;28;20853;-72
2023/03/24 04:16:46;;;;;;;1999.90;999.90;;;26.60;99.90;;;;;;5027843;28;20037;-71
2023/03/24 04:19:36;;;;;;;1999.90;999.90;;;26.60;99.90;;;;;;5003852;28;20145;-71
2023/03/24 04:22:37;;;;;;;1999.90;999.90;;;26.80;99.90;;;;;;5026096;28;20032;-71
2023/03/24 04:25:45;;;;;;;1999.90;999.90;;;27.00;99.90;;;;;;5023608;28;20033;-72
2023/03/24 04:28:40;;;;;;;1999.90;999.90;;;26.90;99.90;;;;;;5023563;28;20539;-70
2023/03/24 04:31:25;;;;;;;1999.90;999.90;;;27.00;99.90;;;;;;5024663;28;20048;-71
2023/03/24 04:34:04;;;;;;;1999.90;999.90;;;26.90;99.90;;;;;;5026973;28;20021;-70
2023/03/24 04:36:53;;;;;;;1999.90;999.90;;;26.90;99.90;;;;;;5026163;28;20448;-70
2023/03/24 04:39:27;;;;;;;1999.90;999.90;;;27.20;99.90;;;;;;5029522;28;20080;-71
2023/03/24 04:41:58;;;;;;;1999.90;999.90;;;27.30;99.90;;;;;;5028205;28;20055;-70
2023/03/24 04:44:26;;;;;;;1999.90;999.90;;;27.10;99.90;;;;;;5021347;28;20021;-71
2023/03/24 04:46:57;;;;;;;1999.90;999.90;;;26.90;99.90;;;;;;5019296;28;20049;-72
2023/03/24 04:49:24;;;;;;;1999.90;999.90;;;26.70;99.90;;;;;;5027565;28;20133;-71
2023/03/24 04:51:52;;;;;;;1999.90;999.90;;;26.60;99.90;;;;;;5028163;28;20026;-71
2023/03/24 04:54:21;;;;;;;1999.90;999.90;;;26.40;99.90;;;;;;5028218;28;20016;-71
2023/03/24 04:56:54;;;;;;;1999.90;999.90;;;26.30;99.90;;;;;;5028165;28;20042;-70
2023/03/24 04:59:22;;;;;;;1999.90;999.90;;;26.20;99.90;;;;;;5028687;28;20021;-71
2023/03/24 05:01:50;;;;;;;1999.90;999.90;;;26.00;99.90;;;;;;5023674;28;20501;-70
2023/03/24 05:04:23;;;;;;;1999.90;999.90;;;25.90;99.90;;;;;;5021546;28;20074;-71
2023/03/24 05:06:51;;;;;;;1999.90;999.90;;;25.80;99.90;;;;;;5026011;28;20029;-72
2023/03/24 05:09:23;;;;;;;1999.90;999.90;;;25.70;99.90;;;;;;5022819;28;20120;-70
2023/03/24 05:11:51;;;;;;;1999.90;999.90;;;26.00;99.90;;;;;;5033028;28;20021;-70
2023/03/24 05:14:19;;;;;;;1999.90;999.90;;;26.20;99.90;;;;;;5027808;28;20021;-72
2023/03/24 05:16:47;;;;;;;1999.90;999.90;;;26.20;99.90;;;;;;5023336;28;20030;-71
2023/03/24 05:19:14;;;;;;;1999.90;999.90;;;26.40;99.90;;;;;;5018873;28;20506;-70
2023/03/24 05:21:42;;;;;;;1999.90;999.90;;;26.60;99.90;;;;;;5023486;28;20029;-70
2023/03/24 05:24:09;;;;;;;1999.90;999.90;;;26.70;99.90;;;;;;5024542;28;20041;-71
2023/03/24 05:26:37;;;;;;;1999.90;999.90;;;26.70;99.90;;;;;;5027641;28;20029;-71
2023/03/24 05:29:04;;;;;;;1999.90;999.90;;;26.80;99.90;;;;;;5018269;28;20033;-72
2023/03/24 05:31:31;;;;;;;1999.90;999.90;;;27.10;99.90;;;;;;5022624;28;20041;-72
2023/03/24 05:34:00;;;;;;;1999.90;999.90;;;27.30;99.90;;;;;;5026446;28;20056;-70
2023/03/24 05:36:27;;;;;;;1999.90;999.90;;;27.30;99.90;;;;;;5023308;28;20033;-70
2023/03/24 05:38:54;;;;;;;1999.90;999.90;;;27.40;99.90;;;;;;5024314;28;20148;-72
2023/03/24 05:41:22;;;;;;;1999.90;999.90;;;27.40;99.90;;;;;;5022108;28;20148;-70
2023/03/24 05:43:49;;;;;;;1999.90;999.90;;;27.50;99.90;;;;;;5025820;28;20052;-72
2023/03/24 05:46:16;;;;;;;1999.90;999.90;;;27.50;99.90;;;;;;5011257;28;20061;-71
2023/03/24 05:48:45;;;;;;;1999.90;999.90;;;27.20;99.90;;;;;;5014604;28;20048;-71
2023/03/24 05:51:13;;;;;;;1999.90;999.90;;;27.00;99.90;;;;;;5022239;28;20080;-70
2023/03/24 05:53:40;;;;;;;1999.90;999.90;;;26.80;99.90;;;;;;5012743;28;20041;-69
2023/03/24 05:56:10;;;;;;;1999.90;999.90;;;26.60;99.90;;;;;;5026428;28;20091;-69
2023/03/24 05:58:38;;;;;;;1999.90;999.90;;;26.40;99.90;;;;;;5032434;28;20112;-69
2023/03/24 06:01:10;;;;;;;1999.90;999.90;;;26.30;99.90;;;;;;5036379;28;20252;-70
2023/03/24 06:03:39;;;;;;;1999.90;999.90;;;26.30;99.90;;;;;;5030085;28;20045;-71
2023/03/24 06:06:15;;;;;;;1999.90;999.90;;;26.40;99.90;;;;;;5028302;28;20124;-70
2023/03/24 06:08:46;;;;;;;1999.90;999.90;;;26.30;99.90;;;;;;5036930;28;20044;-70
2023/03/24 06:11:15;;;;;;;1999.90;999.90;;;26.20;99.90;;;;;;5036147;28;20494;-70
2023/03/24 06:13:42;;;;;;;1999.90;999.90;;;26.00;99.90;;;;;;5031113;28;20029;-69
2023/03/24 06:16:10;;;;;;;1999.90;999.90;;;25.90;99.90;;;;;;5032811;28;20487;-70
2023/03/24 06:18:39;;;;;;;1999.90;999.90;;;25.80;99.90;;;;;;5028609;28;20029;-70
2023/03/24 06:21:07;;;;;;;1999.90;999.90;;;25.70;99.90;;;;;;5034563;28;20037;-70
2023/03/24 06:23:34;;;;;;;1999.90;999.90;;;25.50;99.90;;;;;;5030886;28;20024;-69
2023/03/24 06:26:07;;;;;;;1999.90;999.90;;;25.40;99.90;;;;;;5028691;28;20533;-70
2023/03/24 06:28:34;;;;;;;1999.90;999.90;;;25.30;99.90;;;;;;5030598;28;20488;-70
2023/03/24 06:31:18;;;;;;;1999.90;999.90;;;25.10;99.90;;;;;;5031629;28;20029;-69
2023/03/24 06:33:47;;;;;;;1999.90;999.90;;;25.10;99.90;;;;;;5027758;28;20040;-71
2023/03/24 06:36:15;;;;;;;1999.90;999.90;;;25.10;99.90;;;;;;5030136;28;20021;-69
2023/03/24 06:38:44;;;;;;;1999.90;999.90;;;25.10;99.90;;;;;;5031149;28;20186;-69
2023/03/24 06:41:11;;;;;;;1999.90;999.90;;;25.00;99.90;;;;;;5030605;28;20021;-70
2023/03/24 06:43:39;;;;;;;1999.90;999.90;;;25.00;99.90;;;;;;5025603;28;20037;-73
2023/03/24 06:46:06;;;;;;;1999.90;999.90;;;25.00;99.90;;;;;;5026326;28;20041;-73
2023/03/24 06:48:34;;;;;;;1999.90;999.90;;;25.00;99.90;;;;;;5028495;28;20364;-72
2023/03/24 06:51:02;;;;;;;1999.90;999.90;;;25.00;99.90;;;;;;5028222;28;20032;-70
2023/03/24 06:53:29;;;;;;;1999.90;999.90;;;25.00;99.90;;;;;;5026340;28;20496;-72
2023/03/24 06:55:56;;;;;;;1999.90;999.90;;;24.90;99.90;;;;;;5028262;28;20090;-69
2023/03/24 06:58:24;;;;;;;1999.90;999.90;;;24.80;99.90;;;;;;5031532;28;20121;-71
2023/03/24 07:00:52;;;;;;;1999.90;999.90;;;24.70;99.90;;;;;;5028893;28;20371;-71
2023/03/24 07:03:22;;;;;;;1999.90;999.90;;;24.70;99.90;;;;;;5025804;28;20030;-70
2023/03/24 07:05:49;;;;;;;1999.90;999.90;;;24.60;99.90;;;;;;5029642;28;20087;-69
2023/03/24 07:08:18;;;;;;;1999.90;999.90;;;24.60;99.90;;;;;;5024836;28;20037;-71
2023/03/24 07:10:45;;;;;;;1999.90;999.90;;;24.60;99.90;;;;;;5027349;28;20022;-70
2023/03/24 07:13:12;;;;;;;1999.90;999.90;;;24.50;99.90;;;;;;5024959;28;20527;-69
2023/03/24 07:15:40;;;;;;;1999.90;999.90;;;24.50;99.90;;;;;;5023333;28;20466;-68
2023/03/24 07:18:07;;;;;;;1999.90;999.90;;;24.50;99.90;;;;;;5032908;28;20041;-71
2023/03/24 07:20:34;;;;;;;1999.90;999.90;;;24.40;99.90;;;;;;5027996;28;20025;-70
2023/03/24 07:23:02;;;;;;;1999.90;999.90;;;24.30;99.90;;;;;;5029565;28;20094;-72
2023/03/24 07:25:29;;;;;;;1999.90;999.90;;;24.20;99.90;;;;;;5025900;28;20025;-69
2023/03/24 07:27:57;;;;;;;1999.90;999.90;;;24.10;99.90;;;;;;5026497;28;20029;-70
2023/03/24 07:30:25;;;;;;;1999.90;999.90;;;24.00;99.90;;;;;;5027962;28;20033;-69
2023/03/24 07:32:55;;;;;;;1999.90;999.90;;;24.00;99.90;;;;;;5018113;28;20083;-74
2023/03/24 07:35:22;;;;;;;1999.90;999.90;;;23.90;99.90;;;;;;5030200;28;20740;-71
2023/03/24 07:37:49;;;;;;;1999.90;999.90;;;23.90;99.90;;;;;;5027078;28;20029;-71
2023/03/24 07:40:17;;;;;;;1999.90;999.90;;;23.80;99.90;;;;;;5037204;28;20026;-72
2023/03/24 07:42:46;;;;;;;1999.90;999.90;;;23.80;99.90;;;;;;5031821;28;20084;-71
2023/03/24 07:45:13;;;;;;;1999.90;999.90;;;23.80;99.90;;;;;;5033618;28;20062;-72
2023/03/24 07:47:44;;;;;;;1999.90;999.90;;;23.70;99.90;;;;;;5027973;28;20115;-72
2023/03/24 07:50:13;;;;;;;1999.90;999.90;;;23.60;99.90;;;;;;5037511;28;20037;-72
2023/03/24 07:52:47;;;;;;;1999.90;999.90;;;23.60;99.90;;;;;;5025637;28;20036;-72
2023/03/24 07:55:15;;;;;;;1999.90;999.90;;;23.50;99.90;;;;;;5033138;28;20029;-72
2023/03/24 07:57:45;;;;;;;1999.90;999.90;;;23.50;99.90;;;;;;5031446;28;20025;-72
2023/03/24 08:00:20;;;;;;;1999.90;999.90;;;23.50;99.90;;;;;;5031269;28;20025;-73
2023/03/24 08:02:52;;;;;;;1999.90;999.90;;;23.50;99.90;;;;;;5030905;28;20061;-73
2023/03/24 08:05:21;;;;;;;1999.90;999.90;;;23.50;99.90;;;;;;5033138;28;20451;-71
2023/03/24 08:07:54;;;;;;;1999.90;999.90;;;23.50;99.90;;;;;;5029791;28;20506;-72
2023/03/24 08:10:24;;;;;;;1999.90;999.90;;;23.50;99.90;;;;;;5033790;28;20029;-72
2023/03/24 08:12:51;;;;;;;1999.90;999.90;;;23.40;99.90;;;;;;5028318;28;20103;-72
2023/03/24 08:15:19;;;;;;;1999.90;999.90;;;23.40;99.90;;;;;;5026204;28;20365;-72
2023/03/24 08:17:48;;;;;;;1999.90;999.90;;;23.40;99.90;;;;;;5023087;28;20037;-72
2023/03/24 08:20:17;;;;;;;1999.90;999.90;;;23.40;99.90;;;;;;5027682;28;20025;-69
2023/03/24 08:22:48;;;;;;;1999.90;999.90;;;23.30;99.90;;;;;;5026427;28;20065;-71
2023/03/24 08:25:18;;;;;;;1999.90;999.90;;;23.20;99.90;;;;;;5027545;28;20026;-71
2023/03/24 08:27:46;;;;;;;1999.90;999.90;;;23.30;99.90;;;;;;5026035;28;20503;-71
2023/03/24 08:30:21;;;;;;;1999.90;999.90;;;23.30;99.90;;;;;;5029552;28;20041;-71
2023/03/24 08:32:51;;;;;;;1999.90;999.90;;;23.30;99.90;;;;;;5027123;28;20025;-72
2023/03/24 08:35:22;;;;;;;1999.90;999.90;;;23.30;99.90;;;;;;5027199;28;20160;-70
2023/03/24 08:37:50;;;;;;;1999.90;999.90;;;23.30;99.90;;;;;;5027532;28;20083;-71
2023/03/24 08:40:22;;;;;;;1999.90;999.90;;;23.20;99.90;;;;;;5025594;28;20079;-72
2023/03/24 08:42:54;;;;;;;1999.90;999.90;;;23.20;99.90;;;;;;5023657;28;20590;-70
2023/03/24 08:45:26;;;;;;;1999.90;999.90;;;23.30;99.90;;;;;;5021815;28;20550;-71
2023/03/24 08:47:54;;;;;;;1999.90;999.90;;;23.30;99.90;;;;;;5023972;28;20044;-71
2023/03/24 08:50:28;;;;;;;1999.90;999.90;;;23.30;99.90;;;;;;5034152;28;20049;-72
2023/03/24 08:52:56;;;;;;;1999.90;999.90;;;23.20;99.90;;;;;;5023913;28;20048;-70
2023/03/24 08:55:25;;;;;;;1999.90;999.90;;;23.20;99.90;;;;;;5028955;28;20036;-70
2023/03/24 08:57:52;;;;;;;1999.90;999.90;;;23.30;99.90;;;;;;5025647;28;20445;-70
2023/03/24 09:00:21;;;;;;;1999.90;999.90;;;23.20;99.90;;;;;;5026025;28;20028;-71
2023/03/24 09:02:51;;;;;;;1999.90;999.90;;;23.30;99.90;;;;;;5022971;28;20030;-71
2023/03/24 09:05:19;;;;;;;1999.90;999.90;;;23.20;99.90;;;;;;5029146;28;20053;-70
2023/03/24 09:07:48;;;;;;;1999.90;999.90;;;23.20;99.90;;;;;;5021134;28;20046;-71
2023/03/24 09:10:16;;;;;;;1999.90;999.90;;;23.20;99.90;;;;;;5029523;28;20557;-71
2023/03/24 09:12:46;;;;;;;1999.90;999.90;;;23.10;99.90;;;;;;5028320;28;20484;-70
2023/03/24 09:15:14;;;;;;;1999.90;999.90;;;23.10;99.90;;;;;;5030159;28;20033;-72
2023/03/24 09:17:42;;;;;;;1999.90;999.90;;;23.20;99.90;;;;;;5027907;28;20030;-71
2023/03/24 09:20:12;;;;;;;1999.90;999.90;;;23.10;99.90;;;;;;5029852;28;20029;-72
2023/03/24 09:22:41;;;;;;;1999.90;999.90;;;23.10;99.90;;;;;;5024506;28;20632;-72
2023/03/24 09:25:10;;;;;;;1999.90;999.90;;;23.00;99.90;;;;;;5033827;28;20037;-70
2023/03/24 09:27:38;;;;;;;1999.90;999.90;;;23.00;99.90;;;;;;5020517;28;20052;-71
2023/03/24 09:30:06;;;;;;;1999.90;999.90;;;23.00;99.90;;;;;;5027422;28;20426;-71
2023/03/24 09:32:34;;;;;;;1999.90;999.90;;;23.00;99.90;;;;;;5025902;28;21224;-71
2023/03/24 09:35:01;;;;;;;1999.90;999.90;;;23.00;99.90;;;;;;5028955;28;20093;-71
2023/03/24 09:37:30;;;;;;;1999.90;999.90;;;22.90;99.90;;;;;;5030633;28;20021;-70
2023/03/24 09:40:00;;;;;;;1999.90;999.90;;;22.90;99.90;;;;;;5034822;28;20032;-71
2023/03/24 09:42:40;;;;;;;1999.90;999.90;;;22.90;99.90;;;;;;5028546;28;20017;-74
2023/03/24 09:45:17;;;;;;;1999.90;999.90;;;22.90;99.90;;;;;;5033533;28;20033;-70
2023/03/24 09:48:08;;;;;;;1999.90;999.90;;;22.80;99.90;;;;;;5031453;28;20560;-72
2023/03/24 09:50:51;;;;;;;1999.90;999.90;;;22.80;99.90;;;;;;5031619;28;20029;-71
2023/03/24 09:53:50;;;;;;;1999.90;999.90;;;22.80;99.90;;;;;;5030665;28;20080;-71
2023/03/24 09:56:21;;;;;;;1999.90;999.90;;;22.70;99.90;;;;;;5027055;28;20041;-73
2023/03/24 09:59:16;;;;;;;1999.90;999.90;;;22.60;99.90;;;;;;5023754;28;20153;-73
2023/03/24 10:01:44;;;;;;;1999.90;999.90;;;22.50;99.90;;;;;;5032881;28;20071;-72
2023/03/24 10:04:20;;;;;;;1999.90;999.90;;;22.50;99.90;;;;;;5022562;28;20029;-70
2023/03/24 10:06:52;;;;;;;1999.90;999.90;;;22.40;99.90;;;;;;5027187;28;20033;-70
2023/03/24 10:09:26;;;;;;;1999.90;999.90;;;22.30;99.90;;;;;;5024045;28;20399;-70
2023/03/24 10:12:11;;;;;;;1999.90;999.90;;;22.20;99.90;;;;;;5024381;28;20029;-71
2023/03/24 10:15:13;;;;;;;1999.90;999.90;;;22.10;99.90;;;;;;5025895;28;20033;-70
2023/03/24 10:17:43;;;;;;;1999.90;999.90;;;22.00;99.90;;;;;;5025763;28;20294;-70
2023/03/24 10:20:24;;;;;;;1999.90;999.90;;;22.00;99.90;;;;;;5026758;28;20037;-72
2023/03/24 10:23:31;;;;;;;1999.90;999.90;;;21.90;99.90;;;;;;5018786;28;20037;-71
2023/03/24 10:26:15;;;;;;;1999.90;999.90;;;21.90;99.90;;;;;;5013042;28;20104;-72
2023/03/24 10:28:53;;;;;;;1999.90;999.90;;;21.90;99.90;;;;;;5025347;28;20049;-73
2023/03/24 10:31:28;;;;;;;1999.90;999.90;;;21.90;99.90;;;;;;5031618;28;20041;-75
2023/03/24 10:33:56;;;;;;;1999.90;999.90;;;21.90;99.90;;;;;;5021364;28;20035;-72
2023/03/24 10:36:24;;;;;;;1999.90;999.90;;;21.90;99.90;;;;;;5021805;28;20029;-71
2023/03/24 10:38:51;;;;;;;1999.90;999.90;;;21.80;99.90;;;;;;5019749;28;20044;-71
2023/03/24 10:41:24;;;;;;;1999.90;999.90;;;21.80;99.90;;;;;;5026292;28;20061;-71
2023/03/24 10:43:54;;;;;;;1999.90;999.90;;;21.90;99.90;;;;;;5027110;28;20361;-72
2023/03/24 10:46:27;;;;;;;1999.90;999.90;;;21.90;99.90;;;;;;5025177;28;20124;-71
2023/03/24 10:49:13;;;;;;;1999.90;999.90;;;21.90;99.90;;;;;;5025082;28;20407;-71
2023/03/24 10:51:47;;;;;;;1999.90;999.90;;;21.90;99.90;;;;;;5025161;28;20170;-72
2023/03/24 10:54:22;;;;;;;1999.90;999.90;;;21.90;99.90;;;;;;5027885;28;20112;-71
2023/03/24 10:56:59;;;;;;;1999.90;999.90;;;21.90;99.90;;;;;;5027693;28;20025;-69
2023/03/24 10:59:35;;;;;;;1999.90;999.90;;;22.00;99.90;;;;;;5026995;28;20026;-70
2023/03/24 11:02:28;;;;;;;1999.90;999.90;;;22.00;99.90;;;;;;5027873;28;20026;-70
2023/03/24 11:05:04;;;;;;;1999.90;999.90;;;22.00;99.90;;;;;;5029046;28;20202;-70
2023/03/24 11:07:30;;;;;;;;;;;22.00;99.90;;;;;;5030516;28;20037;-70
2023/03/24 11:10:02;;;;;;;1999.90;999.90;;;22.00;99.90;;;;;;5042070;28;19956;-70
2023/03/24 11:12:32;;;;;;;1999.90;999.90;;;22.00;99.90;;;;;;5038243;28;20029;-70
2023/03/24 11:15:29;;;;;;;1999.90;999.90;;;21.90;99.90;;;;;;5037351;28;20420;-70
2023/03/24 11:18:00;;;;;;;1999.90;999.90;;;21.90;99.90;;;;;;5030126;28;20025;-70
2023/03/24 11:21:03;;;;;;;1999.90;999.90;;;21.90;99.90;;;;;;5039717;28;20067;-70
2023/03/24 11:23:39;;;;;;;1999.90;999.90;;;21.90;99.90;;;;;;5028162;28;20376;-70
2023/03/24 11:26:17;;;;;;;1999.90;999.90;;;21.90;99.90;;;;;;5031532;28;20036;-69
2023/03/24 11:28:53;;;;;;;1999.90;999.90;;;21.90;99.90;;;;;;5023867;28;20049;-70
2023/03/24 11:31:37;;;;;;;1999.90;999.90;;;21.90;99.90;;;;;;5034831;28;20021;-70
2023/03/24 11:34:41;;;;;;;1999.90;999.90;;;21.90;99.90;;;;;;5029745;28;20491;-70
2023/03/24 11:37:32;;;;;;;1999.90;999.90;;;21.90;99.90;;;;;;5024959;28;20029;-70
2023/03/24 11:40:25;;;;;;;1999.90;999.90;;;21.80;99.90;;;;;;5027767;28;20485;-70
2023/03/24 11:43:02;;;;;;;1999.90;999.90;;;21.80;99.90;;;;;;5032116;28;20040;-70
2023/03/24 11:45:43;;;;;;;1999.90;999.90;;;21.90;99.90;;;;;;5032087;28;20741;-70
2023/03/24 11:48:38;;;;;;;1999.90;999.90;;;21.90;99.90;;;;;;5035100;28;20600;-70
2023/03/24 11:51:11;;;;;;;1999.90;999.90;;;21.90;99.90;;;;;;5023904;28;20392;-70
2023/03/24 11:53:50;;;;;;;1999.90;999.90;;;21.90;99.90;;;;;;5028879;28;20487;-70
2023/03/24 11:56:37;;;;;;;1999.90;999.90;;;21.80;99.90;;;;;;5027471;28;20045;-69
2023/03/24 11:59:22;;;;;;;1999.90;999.90;;;21.80;99.90;;;;;;5026864;28;20101;-69
2023/03/24 12:02:13;;;;;;;1999.90;999.90;;;21.80;99.90;;;;;;5031516;28;20470;-70
2023/03/24 12:04:56;;;;;;;1999.90;999.90;;;21.80;99.90;;;;;;5029507;28;20045;-69
2023/03/24 12:07:44;;;;;;;1999.90;999.90;;;21.70;99.90;;;;;;5025672;28;20049;-70
2023/03/24 12:10:33;;;;;;;1999.90;999.90;;;21.70;99.90;;;;;;5029411;28;20044;-69
2023/03/24 12:13:21;;;;;;;1999.90;999.90;;;21.70;99.90;;;;;;5031629;28;20025;-70
2023/03/24 12:16:12;;;;;;;1999.90;999.90;;;21.70;99.90;;;;;;5033729;28;20041;-71
2023/03/24 12:18:55;;;;;;;1999.90;999.90;;;21.70;99.90;;;;;;5027276;28;20037;-71
2023/03/24 12:21:55;;;;;;;1999.90;999.90;;;21.70;99.90;;;;;;5025095;28;20366;-71
2023/03/24 12:24:37;;;;;;;1999.90;999.90;;;21.70;99.90;;;;;;5035463;28;20480;-71
2023/03/24 12:27:04;;;;;;;1999.90;999.90;;;21.70;99.90;;;;;;5031117;28;20434;-71
2023/03/24 12:29:37;;;;;;;1999.90;999.90;;;21.70;99.90;;;;;;5035384;28;20101;-70
2023/03/24 12:32:29;;;;;;;1999.90;999.90;;;21.70;99.90;;;;;;5031232;28;20407;-70
2023/03/24 12:35:28;;;;;;;1999.90;999.90;;;21.70;99.90;;;;;;5032818;28;20432;-70
2023/03/24 12:38:26;;;;;;;1999.90;999.90;;;21.70;99.90;;;;;;5027136;28;20049;-71